sensor_id;sensor_type;location;lat;lon;timestamp;P1;durP1;ratioP1;P2;durP2;ratioP2
67562;SDS011;54392;53.556;49.214;2022-08-04T00:02:23;6.90;;;5.87;;
67562;SDS011;54392;53.556;49.214;2022-08-04T00:04:59;9.30;;;6.50;;
67562;SDS011;54392;53.556;49.214;2022-08-04T00:07:33;5.35;;;4.93;;
67562;SDS011;54392;53.556;49.214;2022-08-04T00:10:06;7.37;;;6.32;;
67562;SDS011;54392;53.556;49.214;2022-08-04T00:12:40;8.68;;;7.40;;
67562;SDS011;54392;53.556;49.214;2022-08-04T00:15:10;19.65;;;7.10;;
67562;SDS011;54392;53.556;49.214;2022-08-04T00:17:40;8.95;;;5.90;;
67562;SDS011;54392;53.556;49.214;2022-08-04T00:20:16;13.13;;;6.20;;
67562;SDS011;54392;53.556;49.214;2022-08-04T00:22:47;9.63;;;7.03;;
67562;SDS011;54392;53.556;49.214;2022-08-04T00:25:13;7.25;;;6.50;;
67562;SDS011;54392;53.556;49.214;2022-08-04T00:27:42;7.45;;;5.57;;
67562;SDS011;54392;53.556;49.214;2022-08-04T00:30:14;7.00;;;6.12;;
67562;SDS011;54392;53.556;49.214;2022-08-04T00:35:26;7.37;;;6.18;;
67562;SDS011;54392;53.556;49.214;2022-08-04T00:38:00;13.40;;;6.87;;
67562;SDS011;54392;53.556;49.214;2022-08-04T00:43:32;7.30;;;6.60;;
67562;SDS011;54392;53.556;49.214;2022-08-04T00:51:43;5.28;;;4.78;;
67562;SDS011;54392;53.556;49.214;2022-08-04T00:54:24;7.68;;;5.97;;
67562;SDS011;54392;53.556;49.214;2022-08-04T01:00:16;6.75;;;6.20;;
67562;SDS011;54392;53.556;49.214;2022-08-04T01:03:00;7.28;;;6.57;;
67562;SDS011;54392;53.556;49.214;2022-08-04T01:08:27;9.15;;;6.72;;
67562;SDS011;54392;53.556;49.214;2022-08-04T01:16:52;6.37;;;5.78;;
67562;SDS011;54392;53.556;49.214;2022-08-04T01:30:32;8.02;;;6.30;;
67562;SDS011;54392;53.556;49.214;2022-08-04T01:33:02;5.93;;;5.07;;
67562;SDS011;54392;53.556;49.214;2022-08-04T01:35:35;5.53;;;5.03;;
67562;SDS011;54392;53.556;49.214;2022-08-04T01:38:27;8.02;;;5.47;;
67562;SDS011;54392;53.556;49.214;2022-08-04T01:41:18;6.82;;;6.22;;
67562;SDS011;54392;53.556;49.214;2022-08-04T01:43:47;12.25;;;4.53;;
67562;SDS011;54392;53.556;49.214;2022-08-04T01:46:16;15.68;;;6.45;;
67562;SDS011;54392;53.556;49.214;2022-08-04T01:48:44;6.15;;;5.55;;
67562;SDS011;54392;53.556;49.214;2022-08-04T01:51:11;4.68;;;4.28;;
67562;SDS011;54392;53.556;49.214;2022-08-04T01:53:52;12.65;;;6.82;;
67562;SDS011;54392;53.556;49.214;2022-08-04T01:56:19;14.70;;;6.35;;
67562;SDS011;54392;53.556;49.214;2022-08-04T01:58:56;8.07;;;6.32;;
67562;SDS011;54392;53.556;49.214;2022-08-04T02:01:22;10.05;;;5.82;;
67562;SDS011;54392;53.556;49.214;2022-08-04T02:03:54;13.50;;;5.55;;
67562;SDS011;54392;53.556;49.214;2022-08-04T02:06:33;7.82;;;5.47;;
67562;SDS011;54392;53.556;49.214;2022-08-04T02:12:03;8.52;;;7.57;;
67562;SDS011;54392;53.556;49.214;2022-08-04T02:14:37;11.15;;;8.10;;
67562;SDS011;54392;53.556;49.214;2022-08-04T02:22:29;9.30;;;8.25;;
67562;SDS011;54392;53.556;49.214;2022-08-04T02:25:09;9.40;;;8.43;;
67562;SDS011;54392;53.556;49.214;2022-08-04T02:33:35;7.25;;;6.22;;
67562;SDS011;54392;53.556;49.214;2022-08-04T02:36:04;12.00;;;9.05;;
67562;SDS011;54392;53.556;49.214;2022-08-04T02:43:39;12.82;;;7.78;;
67562;SDS011;54392;53.556;49.214;2022-08-04T02:46:12;11.90;;;8.73;;
67562;SDS011;54392;53.556;49.214;2022-08-04T02:48:45;10.90;;;9.05;;
67562;SDS011;54392;53.556;49.214;2022-08-04T02:51:12;14.60;;;10.20;;
67562;SDS011;54392;53.556;49.214;2022-08-04T02:53:42;8.60;;;7.85;;
67562;SDS011;54392;53.556;49.214;2022-08-04T02:56:11;16.48;;;10.07;;
67562;SDS011;54392;53.556;49.214;2022-08-04T02:58:43;10.73;;;8.50;;
67562;SDS011;54392;53.556;49.214;2022-08-04T03:01:13;8.57;;;7.75;;
67562;SDS011;54392;53.556;49.214;2022-08-04T03:24:52;14.48;;;9.32;;
67562;SDS011;54392;53.556;49.214;2022-08-04T03:28:10;18.58;;;12.65;;
67562;SDS011;54392;53.556;49.214;2022-08-04T04:00:25;32.72;;;14.65;;
67562;SDS011;54392;53.556;49.214;2022-08-04T04:06:01;24.60;;;14.32;;
67562;SDS011;54392;53.556;49.214;2022-08-04T04:08:41;21.98;;;15.90;;
67562;SDS011;54392;53.556;49.214;2022-08-04T04:26:02;29.80;;;17.60;;
67562;SDS011;54392;53.556;49.214;2022-08-04T04:42:28;22.58;;;15.68;;
67562;SDS011;54392;53.556;49.214;2022-08-04T04:53:46;33.25;;;19.17;;
67562;SDS011;54392;53.556;49.214;2022-08-04T04:56:39;29.08;;;17.50;;
67562;SDS011;54392;53.556;49.214;2022-08-04T04:59:21;29.87;;;16.08;;
67562;SDS011;54392;53.556;49.214;2022-08-04T05:15:33;46.10;;;28.33;;
67562;SDS011;54392;53.556;49.214;2022-08-04T05:18:05;38.05;;;27.80;;
67562;SDS011;54392;53.556;49.214;2022-08-04T05:20:39;51.80;;;32.83;;
67562;SDS011;54392;53.556;49.214;2022-08-04T05:23:26;50.25;;;31.80;;
67562;SDS011;54392;53.556;49.214;2022-08-04T05:26:11;49.75;;;29.95;;
67562;SDS011;54392;53.556;49.214;2022-08-04T05:31:12;37.42;;;25.73;;
67562;SDS011;54392;53.556;49.214;2022-08-04T05:33:54;36.55;;;24.75;;
67562;SDS011;54392;53.556;49.214;2022-08-04T05:36:25;29.10;;;22.67;;
67562;SDS011;54392;53.556;49.214;2022-08-04T05:38:59;29.85;;;19.75;;
67562;SDS011;54392;53.556;49.214;2022-08-04T05:41:34;22.23;;;18.20;;
67562;SDS011;54392;53.556;49.214;2022-08-04T05:44:01;30.48;;;17.90;;
67562;SDS011;54392;53.556;49.214;2022-08-04T05:46:28;22.90;;;16.83;;
67562;SDS011;54392;53.556;49.214;2022-08-04T05:48:58;26.87;;;16.75;;
67562;SDS011;54392;53.556;49.214;2022-08-04T05:51:26;21.10;;;17.30;;
67562;SDS011;54392;53.556;49.214;2022-08-04T05:53:58;29.27;;;16.45;;
67562;SDS011;54392;53.556;49.214;2022-08-04T05:56:25;22.30;;;15.85;;
67562;SDS011;54392;53.556;49.214;2022-08-04T05:58:52;23.85;;;14.27;;
67562;SDS011;54392;53.556;49.214;2022-08-04T06:01:21;18.23;;;14.63;;
67562;SDS011;54392;53.556;49.214;2022-08-04T06:03:51;18.67;;;13.98;;
67562;SDS011;54392;53.556;49.214;2022-08-04T06:06:24;16.20;;;14.65;;
67562;SDS011;54392;53.556;49.214;2022-08-04T06:08:51;16.27;;;13.68;;
67562;SDS011;54392;53.556;49.214;2022-08-04T06:11:18;16.62;;;15.02;;
67562;SDS011;54392;53.556;49.214;2022-08-04T06:13:58;20.70;;;15.45;;
67562;SDS011;54392;53.556;49.214;2022-08-04T06:16:28;16.92;;;13.48;;
67562;SDS011;54392;53.556;49.214;2022-08-04T06:19:00;23.38;;;17.65;;
67562;SDS011;54392;53.556;49.214;2022-08-04T06:21:28;17.25;;;15.57;;
67562;SDS011;54392;53.556;49.214;2022-08-04T06:23:55;17.12;;;14.50;;
67562;SDS011;54392;53.556;49.214;2022-08-04T06:26:24;20.23;;;14.35;;
67562;SDS011;54392;53.556;49.214;2022-08-04T06:28:51;18.45;;;16.52;;
67562;SDS011;54392;53.556;49.214;2022-08-04T06:31:19;19.85;;;14.80;;
67562;SDS011;54392;53.556;49.214;2022-08-04T06:34:17;20.30;;;14.40;;
67562;SDS011;54392;53.556;49.214;2022-08-04T06:36:44;21.40;;;15.80;;
67562;SDS011;54392;53.556;49.214;2022-08-04T06:39:12;21.08;;;16.60;;
67562;SDS011;54392;53.556;49.214;2022-08-04T06:41:41;27.80;;;18.30;;
67562;SDS011;54392;53.556;49.214;2022-08-04T06:44:11;23.12;;;18.40;;
67562;SDS011;54392;53.556;49.214;2022-08-04T06:46:39;25.42;;;15.57;;
67562;SDS011;54392;53.556;49.214;2022-08-04T06:49:06;19.73;;;14.20;;
67562;SDS011;54392;53.556;49.214;2022-08-04T06:51:34;19.42;;;12.23;;
67562;SDS011;54392;53.556;49.214;2022-08-04T06:54:01;17.27;;;12.35;;
67562;SDS011;54392;53.556;49.214;2022-08-04T06:56:28;25.80;;;13.00;;
67562;SDS011;54392;53.556;49.214;2022-08-04T06:58:55;29.73;;;11.27;;
67562;SDS011;54392;53.556;49.214;2022-08-04T07:01:28;19.67;;;11.17;;
67562;SDS011;54392;53.556;49.214;2022-08-04T07:03:55;20.58;;;9.20;;
67562;SDS011;54392;53.556;49.214;2022-08-04T07:06:21;10.15;;;7.55;;
67562;SDS011;54392;53.556;49.214;2022-08-04T07:08:48;9.57;;;8.45;;
67562;SDS011;54392;53.556;49.214;2022-08-04T07:11:15;18.80;;;8.98;;
67562;SDS011;54392;53.556;49.214;2022-08-04T07:13:45;21.08;;;9.60;;
67562;SDS011;54392;53.556;49.214;2022-08-04T07:16:14;11.68;;;8.48;;
67562;SDS011;54392;53.556;49.214;2022-08-04T07:18:41;11.32;;;7.30;;
67562;SDS011;54392;53.556;49.214;2022-08-04T07:21:07;9.60;;;6.70;;
67562;SDS011;54392;53.556;49.214;2022-08-04T07:23:33;17.08;;;7.40;;
67562;SDS011;54392;53.556;49.214;2022-08-04T07:26:05;8.57;;;7.62;;
67562;SDS011;54392;53.556;49.214;2022-08-04T07:28:37;16.17;;;7.55;;
67562;SDS011;54392;53.556;49.214;2022-08-04T07:31:14;5.97;;;5.47;;
67562;SDS011;54392;53.556;49.214;2022-08-04T07:33:44;16.48;;;8.27;;
67562;SDS011;54392;53.556;49.214;2022-08-04T07:36:14;11.63;;;8.05;;
67562;SDS011;54392;53.556;49.214;2022-08-04T07:38:43;10.32;;;7.30;;
67562;SDS011;54392;53.556;49.214;2022-08-04T07:41:11;6.15;;;5.55;;
67562;SDS011;54392;53.556;49.214;2022-08-04T07:43:39;12.20;;;6.60;;
67562;SDS011;54392;53.556;49.214;2022-08-04T07:46:07;13.20;;;8.38;;
67562;SDS011;54392;53.556;49.214;2022-08-04T07:48:37;15.57;;;7.45;;
67562;SDS011;54392;53.556;49.214;2022-08-04T07:51:03;9.35;;;6.43;;
67562;SDS011;54392;53.556;49.214;2022-08-04T07:53:30;12.77;;;7.00;;
67562;SDS011;54392;53.556;49.214;2022-08-04T07:56:02;18.65;;;6.78;;
67562;SDS011;54392;53.556;49.214;2022-08-04T07:58:28;10.02;;;6.32;;
67562;SDS011;54392;53.556;49.214;2022-08-04T08:00:55;5.47;;;4.97;;
67562;SDS011;54392;53.556;49.214;2022-08-04T08:03:22;12.15;;;4.70;;
67562;SDS011;54392;53.556;49.214;2022-08-04T08:05:50;5.07;;;4.57;;
67562;SDS011;54392;53.556;49.214;2022-08-04T08:08:16;4.75;;;4.35;;
67562;SDS011;54392;53.556;49.214;2022-08-04T08:10:48;5.62;;;5.10;;
67562;SDS011;54392;53.556;49.214;2022-08-04T08:13:20;6.25;;;4.30;;
67562;SDS011;54392;53.556;49.214;2022-08-04T08:15:49;16.70;;;7.25;;
67562;SDS011;54392;53.556;49.214;2022-08-04T08:18:15;16.40;;;7.40;;
67562;SDS011;54392;53.556;49.214;2022-08-04T08:20:43;12.90;;;4.30;;
67562;SDS011;54392;53.556;49.214;2022-08-04T08:23:10;11.45;;;4.95;;
67562;SDS011;54392;53.556;49.214;2022-08-04T08:25:39;7.43;;;6.53;;
67562;SDS011;54392;53.556;49.214;2022-08-04T08:28:11;10.85;;;6.80;;
67562;SDS011;54392;53.556;49.214;2022-08-04T08:30:37;9.20;;;7.15;;
67562;SDS011;54392;53.556;49.214;2022-08-04T08:33:07;6.75;;;5.70;;
67562;SDS011;54392;53.556;49.214;2022-08-04T08:38:39;17.00;;;6.57;;
67562;SDS011;54392;53.556;49.214;2022-08-04T08:58:22;11.30;;;8.88;;
67562;SDS011;54392;53.556;49.214;2022-08-04T09:14:52;14.20;;;12.57;;
67562;SDS011;54392;53.556;49.214;2022-08-04T09:17:22;21.15;;;15.70;;
67562;SDS011;54392;53.556;49.214;2022-08-04T09:20:02;16.92;;;11.25;;
67562;SDS011;54392;53.556;49.214;2022-08-04T09:22:48;6.70;;;5.30;;
67562;SDS011;54392;53.556;49.214;2022-08-04T09:25:21;5.07;;;4.68;;
67562;SDS011;54392;53.556;49.214;2022-08-04T09:27:54;4.40;;;4.00;;
67562;SDS011;54392;53.556;49.214;2022-08-04T09:30:26;31.02;;;9.25;;
67562;SDS011;54392;53.556;49.214;2022-08-04T09:33:17;4.10;;;2.70;;
67562;SDS011;54392;53.556;49.214;2022-08-04T09:36:14;4.30;;;3.90;;
67562;SDS011;54392;53.556;49.214;2022-08-04T09:39:10;10.48;;;6.15;;
67562;SDS011;54392;53.556;49.214;2022-08-04T09:52:43;17.50;;;5.60;;
67562;SDS011;54392;53.556;49.214;2022-08-04T09:55:29;8.75;;;7.53;;
67562;SDS011;54392;53.556;49.214;2022-08-04T09:58:08;7.57;;;6.78;;
67562;SDS011;54392;53.556;49.214;2022-08-04T10:00:40;14.68;;;9.93;;
67562;SDS011;54392;53.556;49.214;2022-08-04T10:03:13;15.32;;;10.60;;
67562;SDS011;54392;53.556;49.214;2022-08-04T10:05:48;16.52;;;11.65;;
67562;SDS011;54392;53.556;49.214;2022-08-04T10:11:23;13.90;;;10.30;;
67562;SDS011;54392;53.556;49.214;2022-08-04T10:16:56;6.82;;;6.22;;
67562;SDS011;54392;53.556;49.214;2022-08-04T10:19:37;8.20;;;7.35;;
67562;SDS011;54392;53.556;49.214;2022-08-04T10:25:14;14.50;;;8.85;;
67562;SDS011;54392;53.556;49.214;2022-08-04T10:27:46;12.63;;;8.35;;
67562;SDS011;54392;53.556;49.214;2022-08-04T10:30:15;20.62;;;7.90;;
67562;SDS011;54392;53.556;49.214;2022-08-04T10:32:49;4.60;;;4.20;;
67562;SDS011;54392;53.556;49.214;2022-08-04T10:35:25;5.95;;;5.35;;
67562;SDS011;54392;53.556;49.214;2022-08-04T10:37:58;7.53;;;6.22;;
67562;SDS011;54392;53.556;49.214;2022-08-04T10:40:31;6.60;;;5.05;;
67562;SDS011;54392;53.556;49.214;2022-08-04T10:45:52;10.50;;;5.95;;
67562;SDS011;54392;53.556;49.214;2022-08-04T10:52:13;14.73;;;7.10;;
67562;SDS011;54392;53.556;49.214;2022-08-04T10:54:30;7.82;;;6.57;;
67562;SDS011;54392;53.556;49.214;2022-08-04T10:57:05;6.65;;;6.00;;
67562;SDS011;54392;53.556;49.214;2022-08-04T11:05:11;5.50;;;4.32;;
67562;SDS011;54392;53.556;49.214;2022-08-04T11:07:54;8.23;;;5.75;;
67562;SDS011;54392;53.556;49.214;2022-08-04T11:10:28;7.37;;;6.65;;
67562;SDS011;54392;53.556;49.214;2022-08-04T11:13:00;6.53;;;5.30;;
67562;SDS011;54392;53.556;49.214;2022-08-04T11:15:32;7.22;;;5.28;;
67562;SDS011;54392;53.556;49.214;2022-08-04T11:21:31;10.80;;;6.22;;
67562;SDS011;54392;53.556;49.214;2022-08-04T11:24:33;8.02;;;5.40;;
67562;SDS011;54392;53.556;49.214;2022-08-04T11:27:00;6.78;;;5.25;;
67562;SDS011;54392;53.556;49.214;2022-08-04T11:29:49;4.65;;;4.25;;
67562;SDS011;54392;53.556;49.214;2022-08-04T11:32:25;8.38;;;4.25;;
67562;SDS011;54392;53.556;49.214;2022-08-04T11:35:04;5.22;;;4.78;;
67562;SDS011;54392;53.556;49.214;2022-08-04T11:37:40;10.43;;;5.62;;
67562;SDS011;54392;53.556;49.214;2022-08-04T11:40:15;6.85;;;4.50;;
67562;SDS011;54392;53.556;49.214;2022-08-04T11:42:56;4.60;;;3.90;;
67562;SDS011;54392;53.556;49.214;2022-08-04T11:45:45;11.65;;;4.10;;
67562;SDS011;54392;53.556;49.214;2022-08-04T11:48:19;6.47;;;2.75;;
67562;SDS011;54392;53.556;49.214;2022-08-04T11:50:51;6.57;;;4.15;;
67562;SDS011;54392;53.556;49.214;2022-08-04T11:53:24;4.18;;;3.17;;
67562;SDS011;54392;53.556;49.214;2022-08-04T11:56:04;4.00;;;3.42;;
67562;SDS011;54392;53.556;49.214;2022-08-04T11:58:35;3.95;;;3.22;;
67562;SDS011;54392;53.556;49.214;2022-08-04T12:03:58;4.25;;;2.72;;
67562;SDS011;54392;53.556;49.214;2022-08-04T12:17:04;5.35;;;2.80;;
67562;SDS011;54392;53.556;49.214;2022-08-04T12:19:50;7.97;;;3.50;;
67562;SDS011;54392;53.556;49.214;2022-08-04T12:22:28;4.95;;;3.45;;
67562;SDS011;54392;53.556;49.214;2022-08-04T12:25:02;3.30;;;2.60;;
67562;SDS011;54392;53.556;49.214;2022-08-04T12:27:44;4.60;;;3.65;;
67562;SDS011;54392;53.556;49.214;2022-08-04T12:30:20;3.58;;;2.95;;
67562;SDS011;54392;53.556;49.214;2022-08-04T12:32:50;3.22;;;2.30;;
67562;SDS011;54392;53.556;49.214;2022-08-04T12:38:31;6.90;;;3.75;;
67562;SDS011;54392;53.556;49.214;2022-08-04T12:40:58;14.73;;;3.20;;
67562;SDS011;54392;53.556;49.214;2022-08-04T12:43:37;15.57;;;3.60;;
67562;SDS011;54392;53.556;49.214;2022-08-04T12:46:07;8.48;;;2.62;;
67562;SDS011;54392;53.556;49.214;2022-08-04T12:48:38;4.80;;;4.00;;
67562;SDS011;54392;53.556;49.214;2022-08-04T12:51:21;16.15;;;4.05;;
67562;SDS011;54392;53.556;49.214;2022-08-04T12:53:54;13.62;;;5.25;;
67562;SDS011;54392;53.556;49.214;2022-08-04T12:56:26;3.15;;;2.62;;
67562;SDS011;54392;53.556;49.214;2022-08-04T12:58:59;4.85;;;3.62;;
67562;SDS011;54392;53.556;49.214;2022-08-04T13:01:28;7.35;;;2.65;;
67562;SDS011;54392;53.556;49.214;2022-08-04T13:03:56;13.35;;;2.95;;
67562;SDS011;54392;53.556;49.214;2022-08-04T13:06:26;7.90;;;3.60;;
67562;SDS011;54392;53.556;49.214;2022-08-04T13:09:18;10.25;;;2.20;;
67562;SDS011;54392;53.556;49.214;2022-08-04T13:12:04;6.53;;;2.58;;
67562;SDS011;54392;53.556;49.214;2022-08-04T13:14:58;3.60;;;3.12;;
67562;SDS011;54392;53.556;49.214;2022-08-04T13:17:41;3.08;;;2.65;;
67562;SDS011;54392;53.556;49.214;2022-08-04T13:20:16;2.35;;;2.12;;
67562;SDS011;54392;53.556;49.214;2022-08-04T13:22:50;2.55;;;2.35;;
67562;SDS011;54392;53.556;49.214;2022-08-04T13:25:18;2.75;;;2.55;;
67562;SDS011;54392;53.556;49.214;2022-08-04T13:27:45;2.42;;;2.22;;
67562;SDS011;54392;53.556;49.214;2022-08-04T13:30:16;4.43;;;3.60;;
67562;SDS011;54392;53.556;49.214;2022-08-04T13:32:44;5.10;;;2.85;;
67562;SDS011;54392;53.556;49.214;2022-08-04T13:35:13;3.80;;;2.08;;
67562;SDS011;54392;53.556;49.214;2022-08-04T13:37:39;2.55;;;2.35;;
67562;SDS011;54392;53.556;49.214;2022-08-04T13:40:11;4.30;;;2.62;;
67562;SDS011;54392;53.556;49.214;2022-08-04T13:42:45;2.70;;;2.08;;
67562;SDS011;54392;53.556;49.214;2022-08-04T13:45:14;4.05;;;3.30;;
67562;SDS011;54392;53.556;49.214;2022-08-04T13:47:45;2.78;;;2.50;;
67562;SDS011;54392;53.556;49.214;2022-08-04T13:50:19;2.80;;;2.42;;
67562;SDS011;54392;53.556;49.214;2022-08-04T13:52:58;2.60;;;2.33;;
67562;SDS011;54392;53.556;49.214;2022-08-04T13:55:40;3.72;;;2.75;;
67562;SDS011;54392;53.556;49.214;2022-08-04T13:58:14;3.10;;;2.08;;
67562;SDS011;54392;53.556;49.214;2022-08-04T14:03:56;3.05;;;2.05;;
67562;SDS011;54392;53.556;49.214;2022-08-04T14:06:35;2.72;;;1.73;;
67562;SDS011;54392;53.556;49.214;2022-08-04T14:09:26;3.00;;;2.05;;
67562;SDS011;54392;53.556;49.214;2022-08-04T14:11:54;2.15;;;1.95;;
67562;SDS011;54392;53.556;49.214;2022-08-04T14:14:27;2.58;;;1.98;;
67562;SDS011;54392;53.556;49.214;2022-08-04T14:19:46;1.80;;;1.65;;
67562;SDS011;54392;53.556;49.214;2022-08-04T14:25:07;3.30;;;2.35;;
67562;SDS011;54392;53.556;49.214;2022-08-04T14:27:47;2.62;;;2.42;;
67562;SDS011;54392;53.556;49.214;2022-08-04T14:30:27;4.18;;;2.53;;
67562;SDS011;54392;53.556;49.214;2022-08-04T14:33:00;2.67;;;2.35;;
67562;SDS011;54392;53.556;49.214;2022-08-04T14:35:33;1.92;;;1.80;;
67562;SDS011;54392;53.556;49.214;2022-08-04T14:38:01;3.97;;;2.83;;
67562;SDS011;54392;53.556;49.214;2022-08-04T14:40:32;2.62;;;2.37;;
67562;SDS011;54392;53.556;49.214;2022-08-04T14:43:04;2.78;;;2.45;;
67562;SDS011;54392;53.556;49.214;2022-08-04T14:45:40;4.22;;;3.53;;
67562;SDS011;54392;53.556;49.214;2022-08-04T14:48:26;9.82;;;3.12;;
67562;SDS011;54392;53.556;49.214;2022-08-04T14:50:57;6.28;;;3.78;;
67562;SDS011;54392;53.556;49.214;2022-08-04T14:53:29;8.48;;;4.22;;
67562;SDS011;54392;53.556;49.214;2022-08-04T14:55:56;6.13;;;3.07;;
67562;SDS011;54392;53.556;49.214;2022-08-04T14:58:30;1.95;;;1.83;;
67562;SDS011;54392;53.556;49.214;2022-08-04T15:01:03;3.03;;;2.75;;
67562;SDS011;54392;53.556;49.214;2022-08-04T15:03:52;4.35;;;3.37;;
67562;SDS011;54392;53.556;49.214;2022-08-04T15:06:23;4.53;;;3.28;;
67562;SDS011;54392;53.556;49.214;2022-08-04T15:08:56;13.62;;;4.62;;
67562;SDS011;54392;53.556;49.214;2022-08-04T15:11:32;5.28;;;4.40;;
67562;SDS011;54392;53.556;49.214;2022-08-04T15:13:59;7.43;;;6.55;;
67562;SDS011;54392;53.556;49.214;2022-08-04T15:16:29;5.25;;;4.60;;
67562;SDS011;54392;53.556;49.214;2022-08-04T15:21:37;4.72;;;4.20;;
67562;SDS011;54392;53.556;49.214;2022-08-04T15:24:10;8.43;;;4.30;;
67562;SDS011;54392;53.556;49.214;2022-08-04T15:26:49;8.25;;;3.85;;
67562;SDS011;54392;53.556;49.214;2022-08-04T15:29:22;6.35;;;4.00;;
67562;SDS011;54392;53.556;49.214;2022-08-04T15:31:57;2.95;;;2.67;;
67562;SDS011;54392;53.556;49.214;2022-08-04T15:34:51;5.72;;;3.85;;
67562;SDS011;54392;53.556;49.214;2022-08-04T15:43:49;5.22;;;4.10;;
67562;SDS011;54392;53.556;49.214;2022-08-04T15:49:20;5.32;;;4.57;;
67562;SDS011;54392;53.556;49.214;2022-08-04T15:52:00;7.15;;;3.85;;
67562;SDS011;54392;53.556;49.214;2022-08-04T15:54:40;6.07;;;3.92;;
67562;SDS011;54392;53.556;49.214;2022-08-04T15:57:07;4.40;;;3.53;;
67562;SDS011;54392;53.556;49.214;2022-08-04T16:02:38;14.05;;;4.87;;
67562;SDS011;54392;53.556;49.214;2022-08-04T16:07:59;4.30;;;3.87;;
67562;SDS011;54392;53.556;49.214;2022-08-04T16:10:36;5.57;;;3.65;;
67562;SDS011;54392;53.556;49.214;2022-08-04T16:13:10;4.80;;;4.32;;
67562;SDS011;54392;53.556;49.214;2022-08-04T16:15:54;5.00;;;4.53;;
67562;SDS011;54392;53.556;49.214;2022-08-04T16:20:58;11.93;;;6.22;;
67562;SDS011;54392;53.556;49.214;2022-08-04T16:26:07;5.90;;;5.40;;
67562;SDS011;54392;53.556;49.214;2022-08-04T16:31:08;7.50;;;6.30;;
67562;SDS011;54392;53.556;49.214;2022-08-04T16:33:44;11.35;;;7.32;;
67562;SDS011;54392;53.556;49.214;2022-08-04T16:36:11;6.80;;;6.07;;
67562;SDS011;54392;53.556;49.214;2022-08-04T16:38:59;10.85;;;6.28;;
67562;SDS011;54392;53.556;49.214;2022-08-04T16:41:40;6.93;;;6.28;;
67562;SDS011;54392;53.556;49.214;2022-08-04T16:44:52;9.10;;;6.78;;
67562;SDS011;54392;53.556;49.214;2022-08-04T16:47:07;6.12;;;5.03;;
67562;SDS011;54392;53.556;49.214;2022-08-04T16:49:39;9.32;;;6.25;;
67562;SDS011;54392;53.556;49.214;2022-08-04T16:52:40;6.78;;;4.87;;
67562;SDS011;54392;53.556;49.214;2022-08-04T16:55:16;7.03;;;5.22;;
67562;SDS011;54392;53.556;49.214;2022-08-04T16:57:46;5.68;;;4.87;;
67562;SDS011;54392;53.556;49.214;2022-08-04T17:00:13;7.22;;;5.10;;
67562;SDS011;54392;53.556;49.214;2022-08-04T17:02:51;7.28;;;5.53;;
67562;SDS011;54392;53.556;49.214;2022-08-04T17:05:22;31.37;;;5.70;;
67562;SDS011;54392;53.556;49.214;2022-08-04T17:07:53;12.05;;;6.32;;
67562;SDS011;54392;53.556;49.214;2022-08-04T17:13:23;13.52;;;5.82;;
67562;SDS011;54392;53.556;49.214;2022-08-04T17:15:53;6.97;;;5.72;;
67562;SDS011;54392;53.556;49.214;2022-08-04T17:18:26;8.32;;;7.00;;
67562;SDS011;54392;53.556;49.214;2022-08-04T17:23:27;8.65;;;5.05;;
67562;SDS011;54392;53.556;49.214;2022-08-04T17:26:02;10.80;;;5.12;;
67562;SDS011;54392;53.556;49.214;2022-08-04T17:28:36;8.98;;;8.07;;
67562;SDS011;54392;53.556;49.214;2022-08-04T17:31:12;10.48;;;7.25;;
67562;SDS011;54392;53.556;49.214;2022-08-04T17:33:46;16.87;;;7.35;;
67562;SDS011;54392;53.556;49.214;2022-08-04T17:36:14;6.50;;;5.90;;
67562;SDS011;54392;53.556;49.214;2022-08-04T17:38:49;10.00;;;7.90;;
67562;SDS011;54392;53.556;49.214;2022-08-04T17:41:20;14.45;;;7.65;;
67562;SDS011;54392;53.556;49.214;2022-08-04T17:43:59;9.57;;;7.68;;
67562;SDS011;54392;53.556;49.214;2022-08-04T17:46:40;13.35;;;9.40;;
67562;SDS011;54392;53.556;49.214;2022-08-04T17:51:50;12.32;;;10.55;;
67562;SDS011;54392;53.556;49.214;2022-08-04T17:56:56;17.42;;;9.48;;
67562;SDS011;54392;53.556;49.214;2022-08-04T17:59:27;21.77;;;11.52;;
67562;SDS011;54392;53.556;49.214;2022-08-04T18:01:59;15.73;;;11.30;;
67562;SDS011;54392;53.556;49.214;2022-08-04T18:07:33;20.80;;;11.40;;
67562;SDS011;54392;53.556;49.214;2022-08-04T18:10:05;13.27;;;11.88;;
67562;SDS011;54392;53.556;49.214;2022-08-04T18:12:39;14.18;;;12.60;;
67562;SDS011;54392;53.556;49.214;2022-08-04T18:15:21;19.37;;;16.05;;
67562;SDS011;54392;53.556;49.214;2022-08-04T18:17:53;16.73;;;14.85;;
67562;SDS011;54392;53.556;49.214;2022-08-04T18:20:23;21.65;;;16.87;;
67562;SDS011;54392;53.556;49.214;2022-08-04T18:22:50;27.60;;;20.10;;
67562;SDS011;54392;53.556;49.214;2022-08-04T18:25:26;27.27;;;18.27;;
67562;SDS011;54392;53.556;49.214;2022-08-04T18:27:56;31.85;;;22.20;;
67562;SDS011;54392;53.556;49.214;2022-08-04T18:30:24;23.08;;;16.15;;
67562;SDS011;54392;53.556;49.214;2022-08-04T18:35:28;19.83;;;16.73;;
67562;SDS011;54392;53.556;49.214;2022-08-04T18:37:58;16.48;;;12.80;;
67562;SDS011;54392;53.556;49.214;2022-08-04T18:40:31;24.80;;;15.55;;
67562;SDS011;54392;53.556;49.214;2022-08-04T18:43:05;16.42;;;13.15;;
67562;SDS011;54392;53.556;49.214;2022-08-04T18:45:33;33.65;;;12.77;;
67562;SDS011;54392;53.556;49.214;2022-08-04T18:48:01;14.75;;;11.40;;
67562;SDS011;54392;53.556;49.214;2022-08-04T18:50:28;12.90;;;10.40;;
67562;SDS011;54392;53.556;49.214;2022-08-04T18:52:56;11.30;;;8.63;;
67562;SDS011;54392;53.556;49.214;2022-08-04T18:55:31;10.48;;;8.25;;
67562;SDS011;54392;53.556;49.214;2022-08-04T18:58:00;15.88;;;8.18;;
67562;SDS011;54392;53.556;49.214;2022-08-04T19:00:26;10.80;;;7.70;;
67562;SDS011;54392;53.556;49.214;2022-08-04T19:02:55;8.02;;;5.30;;
67562;SDS011;54392;53.556;49.214;2022-08-04T19:05:22;6.97;;;5.35;;
67562;SDS011;54392;53.556;49.214;2022-08-04T19:07:54;7.15;;;6.45;;
67562;SDS011;54392;53.556;49.214;2022-08-04T19:10:25;7.25;;;5.75;;
67562;SDS011;54392;53.556;49.214;2022-08-04T19:12:57;7.18;;;6.40;;
67562;SDS011;54392;53.556;49.214;2022-08-04T19:15:25;8.35;;;7.43;;
67562;SDS011;54392;53.556;49.214;2022-08-04T19:17:55;14.80;;;8.02;;
67562;SDS011;54392;53.556;49.214;2022-08-04T19:20:27;12.68;;;8.98;;
67562;SDS011;54392;53.556;49.214;2022-08-04T19:22:54;27.50;;;12.63;;
67562;SDS011;54392;53.556;49.214;2022-08-04T19:25:24;20.27;;;14.05;;
67562;SDS011;54392;53.556;49.214;2022-08-04T19:27:50;25.77;;;15.27;;
67562;SDS011;54392;53.556;49.214;2022-08-04T19:32:49;33.80;;;17.77;;
67562;SDS011;54392;53.556;49.214;2022-08-04T19:35:18;27.87;;;18.48;;
67562;SDS011;54392;53.556;49.214;2022-08-04T19:37:46;30.12;;;13.05;;
67562;SDS011;54392;53.556;49.214;2022-08-04T19:40:19;23.23;;;12.57;;
67562;SDS011;54392;53.556;49.214;2022-08-04T19:42:45;28.15;;;11.93;;
67562;SDS011;54392;53.556;49.214;2022-08-04T19:45:12;13.65;;;9.07;;
67562;SDS011;54392;53.556;49.214;2022-08-04T19:47:40;18.77;;;8.38;;
67562;SDS011;54392;53.556;49.214;2022-08-04T19:50:07;17.73;;;9.68;;
67562;SDS011;54392;53.556;49.214;2022-08-04T19:52:36;18.73;;;9.15;;
67562;SDS011;54392;53.556;49.214;2022-08-04T19:55:14;8.25;;;7.25;;
67562;SDS011;54392;53.556;49.214;2022-08-04T19:57:49;10.75;;;8.10;;
67562;SDS011;54392;53.556;49.214;2022-08-04T20:00:19;13.75;;;8.00;;
67562;SDS011;54392;53.556;49.214;2022-08-04T20:02:45;12.37;;;7.97;;